Time;durP1;ratioP1;P1;durP2;ratioP2;P2;SDS_P1;SDS_P2;PMS_P1;PMS_P2;Temp;Humidity;BMP_temperature;BMP_pressure;BME280_temperature;BME280_humidity;BME280_pressure;Samples;Min_cycle;Max_cycle;Signal;HPM_P1;HPM_P2
2022/04/25 00:00:56;;;;;;;17.15;8.90;;;;;;;7.97;100.00;95613.78;4979003;28;20083;-71
2022/04/25 00:03:21;;;;;;;13.55;9.63;;;;;;;7.90;100.00;95618.50;4975327;28;20039;-69
2022/04/25 00:05:47;;;;;;;11.98;8.60;;;;;;;8.00;100.00;95615.91;4978604;28;20050;-70
2022/04/25 00:08:12;;;;;;;13.75;9.13;;;;;;;8.03;100.00;95616.25;4975204;28;20938;-69
2022/04/25 00:10:38;;;;;;;13.07;8.90;;;;;;;7.93;100.00;95623.31;4977937;28;20042;-71
2022/04/25 00:13:03;;;;;;;15.57;9.63;;;;;;;7.88;100.00;95618.75;4991991;28;20038;-70
2022/04/25 00:15:29;;;;;;;14.00;9.70;;;;;;;8.03;100.00;95624.22;4977114;28;20398;-70
2022/04/25 00:17:55;;;;;;;13.07;9.40;;;;;;;8.13;100.00;95620.03;4976116;28;20073;-71
2022/04/25 00:20:20;;;;;;;17.95;9.73;;;;;;;8.18;100.00;95620.09;4975300;28;20476;-71
2022/04/25 00:22:46;;;;;;;16.50;9.57;;;;;;;8.25;100.00;95623.34;4975823;28;20052;-71
2022/04/25 00:25:12;;;;;;;13.52;9.57;;;;;;;8.14;100.00;95618.97;4976796;28;20514;-69
2022/04/25 00:27:38;;;;;;;15.00;9.60;;;;;;;7.96;100.00;95628.16;4977348;28;20042;-71
2022/04/25 00:30:05;;;;;;;12.05;9.30;;;;;;;8.07;100.00;95624.50;4975696;28;20069;-70
2022/04/25 00:32:30;;;;;;;15.60;9.43;;;;;;;7.99;100.00;95616.97;4974938;28;20564;-69
2022/04/25 00:34:56;;;;;;;21.05;9.52;;;;;;;8.04;100.00;95622.38;4978421;28;20042;-70
2022/04/25 00:37:21;;;;;;;17.38;10.80;;;;;;;8.12;100.00;95616.56;4975145;28;20070;-70
2022/04/25 00:39:46;;;;;;;13.80;9.95;;;;;;;8.10;100.00;95619.50;4975700;28;20046;-70
2022/04/25 00:42:12;;;;;;;13.80;9.82;;;;;;;8.05;100.00;95627.44;4973668;28;20048;-69
2022/04/25 00:44:37;;;;;;;14.02;9.88;;;;;;;7.85;100.00;95619.25;4974790;28;20132;-69
2022/04/25 00:47:04;;;;;;;13.90;9.98;;;;;;;7.79;100.00;95617.59;4975008;28;20046;-71
2022/04/25 00:49:30;;;;;;;14.80;10.13;;;;;;;7.75;100.00;95613.81;4977748;28;20168;-70
2022/04/25 00:51:56;;;;;;;14.73;10.10;;;;;;;7.67;100.00;95616.94;4976700;28;20038;-70
2022/04/25 00:54:22;;;;;;;15.57;10.30;;;;;;;7.59;100.00;95612.06;4975693;28;20045;-69
2022/04/25 00:56:49;;;;;;;14.75;10.00;;;;;;;7.69;100.00;95610.28;4976049;28;20042;-69
2022/04/25 00:59:19;;;;;;;15.70;10.80;;;;;;;7.65;100.00;95609.19;4976416;28;20038;-69
2022/04/25 01:01:45;;;;;;;15.60;10.35;;;;;;;7.72;100.00;95607.16;4975922;28;20193;-70
2022/04/25 01:04:11;;;;;;;16.80;9.85;;;;;;;7.76;100.00;95620.75;4974742;28;20045;-70
2022/04/25 01:06:37;;;;;;;14.82;9.75;;;;;;;7.94;100.00;95612.44;4992683;28;20038;-70
2022/04/25 01:09:03;;;;;;;15.00;9.88;;;;;;;8.07;100.00;95616.53;4974864;28;20185;-71
2022/04/25 01:11:29;;;;;;;17.08;10.43;;;;;;;8.17;100.00;95619.28;4975924;28;20042;-69
2022/04/25 01:13:54;;;;;;;17.08;9.85;;;;;;;8.25;100.00;95623.34;4977264;28;20042;-70
2022/04/25 01:16:20;;;;;;;16.00;10.63;;;;;;;8.31;100.00;95620.47;4975728;28;20409;-71
2022/04/25 01:18:46;;;;;;;16.02;10.43;;;;;;;8.35;100.00;95618.94;4976010;28;20919;-69
2022/04/25 01:21:15;;;;;;;15.07;10.65;;;;;;;8.36;100.00;95631.22;4975565;28;20354;-70
2022/04/25 01:29:10;;;;;;;14.65;9.25;;;;;;;7.79;100.00;95646.91;4974222;28;20057;-70
2022/04/25 01:31:35;;;;;;;14.00;9.60;;;;;;;7.70;100.00;95649.16;4975241;28;20599;-70
2022/04/25 01:34:01;;;;;;;15.10;9.13;;;;;;;7.60;100.00;95646.41;4991582;28;20046;-72
2022/04/25 01:36:27;;;;;;;17.75;10.10;;;;;;;7.34;100.00;95657.81;4978856;28;20471;-71
2022/04/25 01:38:53;;;;;;;14.52;9.25;;;;;;;7.14;100.00;95658.34;4978525;28;20134;-71
2022/04/25 01:41:18;;;;;;;13.20;7.90;;;;;;;6.82;100.00;95658.97;4980979;28;20076;-70
2022/04/25 01:43:44;;;;;;;20.85;7.78;;;;;;;6.76;100.00;95648.50;4980050;28;20121;-70
2022/04/25 01:46:10;;;;;;;11.05;8.10;;;;;;;6.78;100.00;95647.22;4996073;28;20041;-70
2022/04/25 01:48:36;;;;;;;9.32;6.30;;;;;;;6.71;100.00;95635.94;4982710;28;20643;-70
2022/04/25 01:51:03;;;;;;;12.02;7.38;;;;;;;6.56;100.00;95635.72;4981765;28;20121;-70
2022/04/25 01:53:29;;;;;;;13.35;7.78;;;;;;;6.56;100.00;95643.69;4979704;28;20154;-71
2022/04/25 01:55:55;;;;;;;10.30;6.65;;;;;;;6.58;100.00;95641.59;4979269;28;20055;-72
2022/04/25 01:58:21;;;;;;;10.63;7.13;;;;;;;6.49;100.00;95646.50;4977593;28;20066;-72
2022/04/25 02:00:46;;;;;;;9.93;6.68;;;;;;;6.43;100.00;95629.66;4980186;28;20038;-69
2022/04/25 02:03:12;;;;;;;9.90;6.32;;;;;;;6.34;100.00;95628.47;4979790;28;20521;-71
2022/04/25 02:05:38;;;;;;;7.88;5.88;;;;;;;6.28;100.00;95631.28;4979962;28;20042;-71
2022/04/25 02:08:04;;;;;;;10.30;6.10;;;;;;;6.40;100.00;95640.00;4977257;28;20497;-70
2022/04/25 02:10:29;;;;;;;10.65;6.80;;;;;;;6.57;100.00;95639.97;4977503;28;20042;-69
2022/04/25 02:12:55;;;;;;;8.85;5.18;;;;;;;6.69;100.00;95632.72;4992978;28;20642;-71
2022/04/25 02:15:20;;;;;;;7.55;5.47;;;;;;;6.77;100.00;95639.47;4977999;28;20038;-71
2022/04/25 02:17:46;;;;;;;9.63;5.40;;;;;;;6.95;100.00;95648.00;4977711;28;20169;-70
2022/04/25 02:20:12;;;;;;;9.07;5.55;;;;;;;7.07;100.00;95641.75;4977637;28;20430;-70
2022/04/25 02:22:38;;;;;;;10.75;5.43;;;;;;;7.15;100.00;95643.97;4977253;28;20388;-72
2022/04/25 02:25:05;;;;;;;9.25;5.82;;;;;;;7.23;100.00;95635.56;4976766;28;20034;-70
2022/04/25 02:27:31;;;;;;;12.90;6.25;;;;;;;7.14;100.00;95637.84;4975947;28;20046;-72
2022/04/25 02:29:58;;;;;;;9.85;6.38;;;;;;;6.83;100.00;95633.97;4992966;28;20124;-70
2022/04/25 02:32:30;;;;;;;10.20;6.30;;;;;;;6.48;100.00;95633.47;4977290;28;20356;-70
2022/04/25 02:34:56;;;;;;;9.38;6.03;;;;;;;6.48;100.00;95638.78;4978391;28;20564;-71
2022/04/25 02:37:22;;;;;;;10.25;6.05;;;;;;;6.60;100.00;95637.63;4974885;28;20038;-71
2022/04/25 02:39:47;;;;;;;9.55;5.93;;;;;;;6.77;100.00;95653.59;4978254;28;20045;-71
2022/04/25 02:42:13;;;;;;;8.93;5.80;;;;;;;6.88;100.00;95655.34;4976467;28;20481;-69
2022/04/25 02:44:38;;;;;;;13.52;7.93;;;;;;;6.92;100.00;95653.78;4977213;28;20046;-70
2022/04/25 02:47:04;;;;;;;12.73;6.88;;;;;;;6.68;100.00;95649.72;4977039;28;20068;-70
2022/04/25 02:49:29;;;;;;;10.20;6.05;;;;;;;6.72;100.00;95644.72;4978948;28;20112;-71
2022/04/25 02:51:55;;;;;;;10.18;6.53;;;;;;;6.59;100.00;95648.50;4977127;28;20053;-69
2022/04/25 02:54:20;;;;;;;8.48;5.60;;;;;;;6.46;100.00;95648.84;4974760;28;20054;-71
2022/04/25 02:56:46;;;;;;;12.18;6.30;;;;;;;6.62;100.00;95651.50;4976908;28;20463;-71
2022/04/25 02:59:12;;;;;;;8.73;6.20;;;;;;;6.76;100.00;95656.47;4975805;28;20481;-70
2022/04/25 03:01:38;;;;;;;9.15;5.65;;;;;;;6.91;100.00;95662.00;4978253;28;20042;-71
2022/04/25 03:04:03;;;;;;;8.90;5.82;;;;;;;6.97;100.00;95669.03;4976532;28;20677;-70
2022/04/25 03:06:29;;;;;;;11.02;6.13;;;;;;;7.05;100.00;95675.78;4977490;28;20042;-69
2022/04/25 03:08:54;;;;;;;10.07;5.80;;;;;;;6.98;100.00;95687.41;4976690;28;20480;-71
2022/04/25 03:11:20;;;;;;;9.68;6.43;;;;;;;6.89;100.00;95696.03;4976597;28;20044;-70
2022/04/25 03:13:45;;;;;;;15.77;4.80;;;;;;;6.75;100.00;95697.41;4978860;28;20565;-71
2022/04/25 03:16:11;;;;;;;9.23;5.15;;;;;;;6.67;100.00;95701.28;4976276;28;20037;-70
2022/04/25 03:18:37;;;;;;;9.05;5.38;;;;;;;6.59;100.00;95705.13;4978637;28;20065;-70
2022/04/25 03:21:02;;;;;;;10.57;5.43;;;;;;;6.69;100.00;95699.19;4982602;28;20046;-72
2022/04/25 03:23:29;;;;;;;10.23;5.72;;;;;;;6.73;100.00;95695.00;4981664;28;20311;-69
2022/04/25 03:25:55;;;;;;;9.18;5.57;;;;;;;6.81;100.00;95696.44;4978851;28;20057;-71
2022/04/25 03:28:21;;;;;;;11.85;5.50;;;;;;;6.84;100.00;95699.41;4981046;28;20042;-71
2022/04/25 03:30:47;;;;;;;6.65;4.78;;;;;;;6.88;100.00;95691.78;4981302;28;20054;-70
2022/04/25 03:33:13;;;;;;;7.72;4.88;;;;;;;6.86;100.00;95705.31;4980740;28;20049;-70
2022/04/25 03:35:39;;;;;;;7.82;4.95;;;;;;;6.91;100.00;95696.59;4982193;28;20038;-71
2022/04/25 03:38:09;;;;;;;6.78;4.57;;;;;;;6.87;100.00;95700.81;4979168;28;20042;-71
2022/04/25 03:40:35;;;;;;;8.55;5.15;;;;;;;6.78;100.00;95708.38;4982589;28;20042;-69
2022/04/25 03:43:00;;;;;;;9.65;4.93;;;;;;;6.70;100.00;95703.47;4996398;28;20080;-69
2022/04/25 03:45:26;;;;;;;8.23;5.72;;;;;;;6.67;100.00;95704.75;4981988;28;20145;-71
2022/04/25 03:47:53;;;;;;;8.05;4.82;;;;;;;6.67;100.00;95714.56;4982284;28;20120;-69
2022/04/25 03:50:19;;;;;;;9.07;5.05;;;;;;;6.70;100.00;95703.47;4980327;28;20050;-69
2022/04/25 03:52:45;;;;;;;7.93;5.50;;;;;;;6.70;100.00;95703.47;4980527;28;20042;-70
2022/04/25 03:58:01;;;;;;;7.18;5.25;;;;;;;6.82;100.00;95709.50;4980490;28;20056;-70
2022/04/25 04:00:27;;;;;;;7.13;4.72;;;;;;;6.92;100.00;95714.16;4979163;28;20070;-69
2022/04/25 04:02:53;;;;;;;9.00;5.10;;;;;;;6.82;100.00;95712.16;4981258;28;20053;-70
2022/04/25 04:05:20;;;;;;;7.95;5.45;;;;;;;6.78;100.00;95711.03;4978852;28;20039;-70
2022/04/25 04:07:46;;;;;;;8.90;5.78;;;;;;;6.85;100.00;95714.34;4980327;28;20041;-71
2022/04/25 04:10:12;;;;;;;8.15;5.13;;;;;;;6.84;100.00;95710.03;4981697;28;20606;-71
2022/04/25 04:12:38;;;;;;;8.10;5.60;;;;;;;6.86;100.00;95707.97;4980845;28;20058;-70
2022/04/25 04:15:06;;;;;;;9.10;4.97;;;;;;;6.80;100.00;95710.78;4979669;28;20042;-71
2022/04/25 04:17:32;;;;;;;8.45;5.40;;;;;;;6.76;100.00;95713.13;4979675;28;20041;-71
2022/04/25 04:19:57;;;;;;;10.10;5.20;;;;;;;6.69;100.00;95715.97;4994528;28;20043;-70
2022/04/25 04:22:29;;;;;;;7.93;5.43;;;;;;;6.58;100.00;95710.69;4980291;28;20042;-70
2022/04/25 04:25:03;;;;;;;12.02;5.95;;;;;;;6.42;100.00;95720.28;4980562;28;20046;-69
2022/04/25 04:27:31;;;;;;;10.48;5.32;;;;;;;6.35;100.00;95720.44;4978649;28;20505;-70
2022/04/25 04:30:01;;;;;;;8.00;4.78;;;;;;;6.49;100.00;95717.47;4978919;28;20188;-70
2022/04/25 04:32:29;;;;;;;10.07;5.03;;;;;;;6.60;100.00;95719.25;4975164;28;20050;-71
2022/04/25 04:34:56;;;;;;;6.18;4.25;;;;;;;6.65;100.00;95722.00;4980978;28;20108;-70
2022/04/25 04:37:23;;;;;;;6.60;4.05;;;;;;;6.67;100.00;95722.53;4979887;28;21969;-70
2022/04/25 04:39:49;;;;;;;7.80;4.55;;;;;;;6.69;100.00;95725.75;4980422;28;20113;-69
2022/04/25 04:42:14;;;;;;;6.28;4.30;;;;;;;6.68;100.00;95726.81;4981282;28;20451;-70
2022/04/25 04:44:42;;;;;;;6.88;4.47;;;;;;;6.72;100.00;95727.16;4981734;28;20038;-70
2022/04/25 04:47:08;;;;;;;6.95;4.45;;;;;;;6.78;100.00;95731.50;4979707;28;20039;-70
2022/04/25 04:49:34;;;;;;;7.03;3.95;;;;;;;6.76;100.00;95733.59;4980280;28;20061;-70
2022/04/25 04:51:59;;;;;;;6.93;4.25;;;;;;;6.78;100.00;95734.16;4980432;28;20469;-70
2022/04/25 04:54:25;;;;;;;6.78;4.70;;;;;;;6.80;100.00;95735.53;4978430;28;20050;-71
2022/04/25 04:56:51;;;;;;;6.65;4.20;;;;;;;6.83;100.00;95734.22;4978499;28;20104;-70
2022/04/25 04:59:16;;;;;;;5.88;3.97;;;;;;;6.82;100.00;95729.97;4979046;28;20042;-70
2022/04/25 05:01:43;;;;;;;6.70;4.30;;;;;;;6.74;100.00;95730.38;4977926;28;20053;-70
2022/04/25 05:04:09;;;;;;;7.35;4.22;;;;;;;6.75;100.00;95743.41;4978695;28;20121;-71
2022/04/25 05:06:35;;;;;;;6.88;4.57;;;;;;;6.83;100.00;95742.22;4981411;28;20046;-70
2022/04/25 05:09:00;;;;;;;12.02;4.95;;;;;;;6.69;100.00;95736.41;4979866;28;20052;-69
2022/04/25 05:11:29;;;;;;;6.72;4.38;;;;;;;6.60;100.00;95730.69;4978925;28;20624;-70
2022/04/25 05:13:55;;;;;;;7.38;4.43;;;;;;;6.39;100.00;95734.88;4982298;28;20050;-71
2022/04/25 05:16:20;;;;;;;6.80;4.53;;;;;;;6.21;100.00;95735.03;4999902;28;20034;-70
2022/04/25 05:18:46;;;;;;;8.75;5.50;;;;;;;6.27;100.00;95731.44;4985893;28;20524;-70
2022/04/25 05:21:13;;;;;;;11.13;6.80;;;;;;;6.28;100.00;95722.44;4987182;28;20042;-70
2022/04/25 05:23:39;;;;;;;9.85;6.28;;;;;;;6.24;100.00;95718.66;4987318;28;20092;-70
2022/04/25 05:26:07;;;;;;;9.32;5.57;;;;;;;6.17;100.00;95720.66;4985432;28;20426;-70
2022/04/25 05:28:33;;;;;;;8.23;5.55;;;;;;;6.16;100.00;95720.88;4986411;28;20525;-71
2022/04/25 05:30:58;;;;;;;9.05;6.00;;;;;;;6.19;100.00;95721.19;4985112;28;20081;-70
2022/04/25 05:33:24;;;;;;;8.63;5.93;;;;;;;6.15;100.00;95722.75;4985588;28;20038;-70
2022/04/25 05:35:49;;;;;;;10.02;5.72;;;;;;;6.17;100.00;95725.97;4987735;28;20038;-70
2022/04/25 05:38:15;;;;;;;10.43;6.35;;;;;;;6.20;100.00;95724.66;4984494;28;20034;-71
2022/04/25 05:40:41;;;;;;;8.25;5.65;;;;;;;6.13;100.00;95728.25;5001734;28;20355;-71
2022/04/25 05:43:08;;;;;;;8.20;5.88;;;;;;;6.19;100.00;95736.34;4985471;28;20489;-70
2022/04/25 05:45:34;;;;;;;9.55;6.35;;;;;;;6.35;100.00;95732.91;4981215;28;20038;-70
2022/04/25 05:51:58;;;;;;;9.82;5.85;;;;;;;6.40;100.00;95741.78;4985258;28;20481;-70
2022/04/25 05:53:32;;;;;;;10.15;6.47;;;;;;;6.45;100.00;95743.72;4987096;28;20057;-70
2022/04/25 05:55:57;;;;;;;16.35;8.05;;;;;;;6.37;100.00;95747.56;4986271;28;20168;-69
2022/04/25 05:58:23;;;;;;;12.90;9.10;;;;;;;6.40;100.00;95748.94;4987808;28;20085;-69
2022/04/25 06:00:48;;;;;;;9.48;5.95;;;;;;;6.39;100.00;95747.34;4985463;28;20074;-70
2022/04/25 06:03:14;;;;;;;7.70;5.68;;;;;;;6.54;100.00;95747.59;4983402;28;20046;-70
2022/04/25 06:05:39;;;;;;;8.77;6.03;;;;;;;6.67;100.00;95741.97;4985381;28;20125;-69
2022/04/25 06:08:05;;;;;;;12.02;5.97;;;;;;;6.85;100.00;95753.44;4984807;28;20436;-71
2022/04/25 06:10:31;;;;;;;8.80;5.72;;;;;;;6.83;100.00;95755.50;4984865;28;20050;-70
2022/04/25 06:12:57;;;;;;;8.75;6.10;;;;;;;6.83;100.00;95756.31;4986457;28;20124;-70
2022/04/25 06:15:26;;;;;;;12.38;7.13;;;;;;;6.92;100.00;95754.06;4986630;28;20043;-69
2022/04/25 06:17:54;;;;;;;12.18;7.90;;;;;;;6.88;100.00;95748.44;4986324;28;20041;-71
2022/04/25 06:20:21;;;;;;;8.95;6.22;;;;;;;6.72;100.00;95751.88;4985337;28;20042;-70
2022/04/25 06:22:55;;;;;;;10.13;6.13;;;;;;;6.75;100.00;95754.06;4987000;28;20091;-70
2022/04/25 06:25:21;;;;;;;12.50;6.72;;;;;;;6.92;100.00;95757.50;4981948;28;20034;-69
2022/04/25 06:27:47;;;;;;;9.80;5.88;;;;;;;7.01;100.00;95757.94;4983005;28;20340;-69
2022/04/25 06:30:12;;;;;;;10.23;6.55;;;;;;;7.07;100.00;95762.28;4979215;28;20037;-70
2022/04/25 06:32:38;;;;;;;11.35;7.85;;;;;;;7.31;100.00;95764.75;4984349;28;20034;-71
2022/04/25 06:35:04;;;;;;;14.20;9.52;;;;;;;7.47;100.00;95759.41;4982925;28;21165;-69
2022/04/25 06:37:29;;;;;;;8.75;5.88;;;;;;;7.38;100.00;95760.06;4981513;28;20038;-71
2022/04/25 06:39:55;;;;;;;9.23;5.85;;;;;;;7.14;100.00;95765.56;4985520;28;20034;-69
2022/04/25 06:42:21;;;;;;;10.73;6.47;;;;;;;7.39;100.00;95759.00;4980325;28;20503;-69
2022/04/25 06:44:47;;;;;;;9.50;6.35;;;;;;;7.58;100.00;95773.66;4981602;28;20512;-70
2022/04/25 06:47:12;;;;;;;7.75;5.47;;;;;;;7.81;100.00;95767.31;4980400;28;20035;-70
2022/04/25 06:49:38;;;;;;;7.13;4.68;;;;;;;7.83;100.00;95763.31;4981632;28;20064;-70
2022/04/25 06:52:06;;;;;;;8.13;4.53;;;;;;;7.71;100.00;95761.84;4982081;28;20129;-70
2022/04/25 06:54:32;;;;;;;7.57;5.43;;;;;;;8.07;100.00;95768.41;4982516;28;20046;-69
2022/04/25 06:56:58;;;;;;;8.23;5.00;;;;;;;8.27;100.00;95765.16;4983627;28;20050;-70
2022/04/25 06:59:24;;;;;;;8.90;5.70;;;;;;;8.25;100.00;95777.91;4982600;28;20038;-69
2022/04/25 07:01:50;;;;;;;8.70;4.60;;;;;;;8.19;100.00;95777.09;4982954;28;20038;-70
2022/04/25 07:04:17;;;;;;;6.78;4.50;;;;;;;8.24;100.00;95778.97;4981864;28;20385;-71
2022/04/25 07:06:43;;;;;;;7.82;4.43;;;;;;;8.14;100.00;95773.53;4998385;28;20616;-70
2022/04/25 07:09:13;;;;;;;7.47;4.88;;;;;;;8.06;100.00;95782.78;4982189;28;20043;-70
2022/04/25 07:11:46;;;;;;;7.28;4.90;;;;;;;8.07;100.00;95779.88;4981800;28;20552;-71
2022/04/25 07:14:14;;;;;;;7.10;5.03;;;;;;;8.36;100.00;95791.16;4981403;28;20050;-70
2022/04/25 07:16:41;;;;;;;9.63;4.80;;;;;;;8.33;100.00;95794.31;4981124;28;20065;-70
2022/04/25 07:19:06;;;;;;;9.27;5.13;;;;;;;8.64;100.00;95798.13;4983123;28;20069;-71
2022/04/25 07:29:48;;;;;;;7.28;5.00;;;;;;;9.44;100.00;95791.03;4982319;28;20035;-70
2022/04/25 07:32:15;;;;;;;6.32;4.47;;;;;;;9.84;100.00;95799.53;4980704;28;20125;-71
2022/04/25 07:34:42;;;;;;;7.50;4.57;;;;;;;9.99;100.00;95797.75;4980257;28;20050;-70
2022/04/25 07:37:11;;;;;;;6.18;4.40;;;;;;;10.11;100.00;95802.88;4949140;28;20064;-69
2022/04/25 07:39:37;;;;;;;9.88;4.40;;;;;;;10.32;100.00;95809.13;4980532;28;20141;-69
2022/04/25 07:42:04;;;;;;;8.30;3.92;;;;;;;10.48;100.00;95810.78;4980189;28;20117;-72
2022/04/25 07:44:30;;;;;;;9.63;4.60;;;;;;;10.25;100.00;95806.72;4981296;28;20262;-70
2022/04/25 07:46:55;;;;;;;7.22;3.75;;;;;;;9.90;100.00;95802.00;4979499;28;20054;-70
2022/04/25 07:49:21;;;;;;;9.98;5.45;;;;;;;9.61;100.00;95811.44;4979796;28;20046;-69
2022/04/25 07:51:48;;;;;;;11.77;4.43;;;;;;;9.71;100.00;95816.84;4982429;28;20046;-69
2022/04/25 07:54:14;;;;;;;6.63;4.10;;;;;;;10.02;100.00;95820.47;4979460;28;20061;-69
2022/04/25 07:56:42;;;;;;;7.60;4.15;;;;;;;10.05;100.00;95817.31;4979212;28;20038;-70
2022/04/25 07:59:08;;;;;;;8.20;3.88;;;;;;;10.03;100.00;95820.22;4979153;28;20053;-71
2022/04/25 08:01:34;;;;;;;8.32;4.30;;;;;;;9.98;100.00;95817.53;4967353;28;20204;-69
2022/04/25 08:04:00;;;;;;;8.55;4.15;;;;;;;9.94;100.00;95820.97;4981950;28;20420;-69
2022/04/25 08:06:26;;;;;;;8.82;4.25;;;;;;;9.94;100.00;95823.66;4981830;28;20042;-71
2022/04/25 08:08:53;;;;;;;7.45;4.00;;;;;;;10.10;100.00;95824.53;4980373;28;20041;-69
2022/04/25 08:11:20;;;;;;;6.35;3.78;;;;;;;10.22;100.00;95830.47;4980165;28;20034;-69
2022/04/25 08:19:14;;;;;;;6.30;3.97;;;;;;;10.17;100.00;95839.25;4980058;28;20050;-69
2022/04/25 08:21:42;;;;;;;5.55;3.75;;;;;;;10.26;100.00;95837.72;4979748;28;20449;-70
2022/04/25 08:24:08;;;;;;;7.80;4.75;;;;;;;10.39;100.00;95835.66;4979504;28;20789;-70
2022/04/25 08:26:34;;;;;;;7.40;4.20;;;;;;;10.35;100.00;95838.06;4982396;28;20038;-69
2022/04/25 08:29:00;;;;;;;6.05;4.00;;;;;;;10.39;100.00;95847.16;4981382;28;20493;-69
2022/04/25 08:31:26;;;;;;;8.25;4.50;;;;;;;10.33;100.00;95851.66;4993687;28;20042;-69
2022/04/25 08:33:52;;;;;;;7.07;3.97;;;;;;;10.32;100.00;95852.72;4979926;28;20038;-69
2022/04/25 08:36:18;;;;;;;6.72;3.75;;;;;;;10.31;100.00;95850.31;4953599;28;20085;-70
2022/04/25 08:38:47;;;;;;;7.25;4.10;;;;;;;10.27;100.00;95852.72;4981071;28;20422;-70
2022/04/25 08:41:17;;;;;;;7.47;4.35;;;;;;;10.11;100.00;95852.84;4981995;28;20480;-69
2022/04/25 08:43:43;;;;;;;6.65;3.75;;;;;;;10.03;100.00;95862.97;4982514;28;20453;-70
2022/04/25 08:46:11;;;;;;;6.10;4.00;;;;;;;9.98;100.00;95854.94;4978620;28;20113;-70
2022/04/25 08:48:38;;;;;;;9.25;4.03;;;;;;;10.16;100.00;95858.25;4982235;28;20053;-71
2022/04/25 08:51:08;;;;;;;8.38;4.55;;;;;;;10.24;100.00;95863.94;4980537;28;20049;-69
2022/04/25 08:53:37;;;;;;;6.75;4.45;;;;;;;10.31;100.00;95867.16;4982203;28;20488;-69
2022/04/25 08:56:03;;;;;;;6.18;4.35;;;;;;;9.86;100.00;95875.72;4995176;28;20050;-70
2022/04/25 08:58:31;;;;;;;8.18;4.13;;;;;;;9.32;100.00;95875.03;4979313;28;20030;-69
2022/04/25 09:01:00;;;;;;;9.00;4.88;;;;;;;9.05;100.00;95883.88;4979285;28;20580;-69
2022/04/25 09:03:26;;;;;;;7.47;4.50;;;;;;;9.34;100.00;95886.25;4978128;28;20563;-69
2022/04/25 09:05:51;;;;;;;6.30;4.78;;;;;;;9.49;100.00;95886.38;4981323;28;20038;-71
2022/04/25 09:08:17;;;;;;;7.05;4.85;;;;;;;9.63;100.00;95889.44;4978968;28;20371;-71
2022/04/25 09:10:46;;;;;;;9.40;4.50;;;;;;;9.67;100.00;95891.34;4982462;28;20128;-69
2022/04/25 09:13:12;;;;;;;11.68;4.50;;;;;;;9.69;100.00;95893.78;4980139;28;20061;-70
2022/04/25 09:15:38;;;;;;;9.48;5.43;;;;;;;9.78;100.00;95900.25;4980902;28;20050;-70
2022/04/25 09:18:03;;;;;;;7.40;4.65;;;;;;;9.84;100.00;95893.06;4977669;28;20046;-71
2022/04/25 09:20:29;;;;;;;6.45;4.88;;;;;;;9.84;100.00;95907.25;4979898;28;20034;-69
2022/04/25 09:22:56;;;;;;;9.10;4.38;;;;;;;9.74;100.00;95910.66;4980798;28;20038;-72
2022/04/25 09:25:21;;;;;;;9.70;4.47;;;;;;;9.73;100.00;95905.56;4981098;28;20912;-68
2022/04/25 09:28:07;;;;;;;7.68;5.60;;;;;;;9.81;100.00;95906.97;4980324;28;20493;-70
2022/04/25 09:30:32;;;;;;;7.20;5.18;;;;;;;9.73;100.00;95910.91;4977466;28;20152;-70
2022/04/25 09:32:58;;;;;;;8.05;5.82;;;;;;;9.94;100.00;95907.28;4978750;28;20043;-70
2022/04/25 09:35:42;;;;;;;10.50;6.50;;;;;;;10.17;100.00;95907.97;4981580;28;20045;-69
2022/04/25 09:38:13;;;;;;;9.00;5.57;;;;;;;9.69;100.00;95913.28;4965236;28;20061;-70
2022/04/25 09:40:38;;;;;;;10.70;5.18;;;;;;;9.63;100.00;95918.81;4979852;28;20046;-70
2022/04/25 09:43:17;;;;;;;7.20;4.95;;;;;;;9.73;100.00;95914.38;4978972;28;20415;-69
2022/04/25 09:45:44;;;;;;;9.88;5.53;;;;;;;9.82;100.00;95916.59;4980176;28;20042;-69
2022/04/25 09:48:15;;;;;;;8.57;5.30;;;;;;;9.90;100.00;95916.09;4976054;28;20054;-70
2022/04/25 09:50:41;;;;;;;10.27;5.80;;;;;;;9.95;100.00;95921.47;4983448;28;20239;-69
2022/04/25 09:53:09;;;;;;;11.13;5.60;;;;;;;9.97;100.00;95922.84;4979071;28;20290;-70
2022/04/25 09:55:37;;;;;;;7.47;4.78;;;;;;;9.83;100.00;95920.84;4977125;28;20459;-70
2022/04/25 09:58:21;;;;;;;6.45;4.60;;;;;;;9.97;100.00;95922.84;4978224;28;20105;-71
2022/04/25 10:00:49;;;;;;;6.15;4.20;;;;;;;10.15;100.00;95921.59;4980370;28;20481;-70
2022/04/25 10:03:16;;;;;;;5.43;4.07;;;;;;;10.05;100.00;95918.88;4981961;28;20044;-71
2022/04/25 10:05:46;;;;;;;7.05;4.60;;;;;;;10.24;100.00;95922.75;4984019;28;20034;-70
2022/04/25 10:08:17;;;;;;;9.27;5.88;;;;;;;9.94;100.00;95935.91;4980665;28;20681;-70
2022/04/25 10:10:45;;;;;;;6.40;4.78;;;;;;;9.67;100.00;95931.44;4982969;28;20042;-70
2022/04/25 10:13:11;;;;;;;7.50;4.55;;;;;;;9.66;100.00;95937.84;4998774;28;20112;-69
2022/04/25 10:15:38;;;;;;;6.60;4.90;;;;;;;9.63;100.00;95943.66;4984700;28;20151;-69
2022/04/25 10:18:05;;;;;;;7.90;4.82;;;;;;;9.72;100.00;95934.13;4983716;28;20030;-69
2022/04/25 10:20:34;;;;;;;9.75;5.07;;;;;;;9.33;100.00;95938.88;4983451;28;20045;-70
2022/04/25 10:23:02;;;;;;;8.88;5.55;;;;;;;9.36;100.00;95948.25;4981744;28;20093;-70
2022/04/25 10:25:29;;;;;;;7.13;5.45;;;;;;;9.39;100.00;95950.41;4982447;28;20084;-69
2022/04/25 10:27:57;;;;;;;9.05;5.88;;;;;;;9.41;100.00;95950.94;4635742;28;10000181;-70
2022/04/25 10:30:32;;;;;;;7.53;5.40;;;;;;;9.54;100.00;95945.19;4599551;28;10000101;-70
2022/04/25 10:33:17;;;;;;;7.63;5.55;;;;;;;9.90;100.00;95938.28;4979804;28;20046;-69
2022/04/25 10:35:45;;;;;;;7.72;5.80;;;;;;;10.21;100.00;95941.97;4982721;28;20060;-70
2022/04/25 10:38:49;;;;;;;10.95;7.70;;;;;;;11.00;100.00;95942.88;4978329;28;20416;-70
2022/04/25 10:44:18;;;;;;;8.20;6.05;;;;;;;11.72;100.00;95942.72;4976896;28;20041;-70
2022/04/25 10:47:05;;;;;;;9.23;6.30;;;;;;;12.14;100.00;95944.38;4981978;28;20050;-69
2022/04/25 10:49:32;;;;;;;9.68;6.13;;;;;;;12.54;100.00;95935.41;4979779;28;20474;-71
2022/04/25 10:51:58;;;;;;;7.30;5.45;;;;;;;12.41;100.00;95945.91;4979646;28;20042;-70
2022/04/25 10:54:27;;;;;;;10.18;6.25;;;;;;;12.60;100.00;95946.13;4978506;28;20034;-70
2022/04/25 10:57:05;;;;;;;10.32;5.57;;;;;;;13.43;100.00;95937.44;4979333;28;20096;-70
2022/04/25 10:59:31;;;;;;;7.70;5.90;;;;;;;14.86;100.00;95934.25;4979995;28;20571;-69
2022/04/25 11:01:59;;;;;;;7.47;5.70;;;;;;;14.95;100.00;95940.63;4980165;28;20050;-71
2022/04/25 11:04:26;;;;;;;9.23;5.80;;;;;;;15.01;100.00;95940.25;4979053;28;20141;-69
2022/04/25 11:07:23;;;;;;;8.90;5.93;;;;;;;17.93;100.00;95939.34;4980254;28;20465;-71
2022/04/25 11:09:50;;;;;;;7.75;5.47;;;;;;;17.65;100.00;95933.19;4982464;28;20532;-69
2022/04/25 11:12:16;;;;;;;9.32;5.20;;;;;;;18.10;96.80;95934.03;4976884;28;20156;-70
2022/04/25 11:15:01;;;;;;;7.47;5.20;;;;;;;15.87;100.00;95934.75;4979767;28;20529;-71
2022/04/25 11:17:28;;;;;;;8.45;6.18;;;;;;;15.38;100.00;95938.69;4977413;28;20042;-70
2022/04/25 11:19:55;;;;;;;12.05;6.25;;;;;;;14.12;100.00;95934.47;4980991;28;20049;-71
2022/04/25 11:22:31;;;;;;;10.75;5.78;;;;;;;13.73;100.00;95936.44;4980195;28;20129;-69
2022/04/25 11:25:23;;;;;;;7.93;5.18;;;;;;;13.71;100.00;95943.97;4979919;28;20046;-71
2022/04/25 11:28:07;;;;;;;8.02;5.75;;;;;;;14.03;100.00;95935.38;4979921;28;20060;-68
2022/04/25 11:30:33;;;;;;;9.45;6.15;;;;;;;14.09;100.00;95945.81;4967513;28;20042;-69
2022/04/25 11:33:09;;;;;;;9.48;6.65;;;;;;;13.65;100.00;95945.88;4980459;28;20034;-71
2022/04/25 11:35:36;;;;;;;10.35;6.50;;;;;;;13.60;100.00;95951.28;4994692;28;20336;-70
2022/04/25 11:38:02;;;;;;;16.20;5.85;;;;;;;12.94;100.00;95955.13;4980141;28;20042;-70
2022/04/25 11:40:28;;;;;;;13.98;9.07;;;;;;;12.53;100.00;95957.97;4979179;28;20053;-70
2022/04/25 11:42:54;;;;;;;14.90;10.13;;;;;;;12.21;100.00;95966.31;4979503;28;20088;-69
2022/04/25 11:45:20;;;;;;;13.15;9.18;;;;;;;12.24;100.00;95962.31;4981298;28;20042;-70
2022/04/25 11:47:45;;;;;;;12.13;7.28;;;;;;;12.28;100.00;95958.81;4983180;28;20368;-70
2022/04/25 11:50:11;;;;;;;11.45;7.90;;;;;;;12.04;100.00;95978.41;4994858;28;20054;-71
2022/04/25 11:52:45;;;;;;;13.45;8.68;;;;;;;11.57;100.00;95974.06;4983563;28;20053;-71
2022/04/25 11:55:10;;;;;;;15.25;8.82;;;;;;;11.67;100.00;95974.06;4979769;28;20053;-71
2022/04/25 11:57:40;;;;;;;11.48;7.22;;;;;;;11.94;100.00;95980.03;4976606;28;20201;-71